This is the latest recevied weather packets stored in our database for station/object OE5HMR-13. If no packets are shown the sender has not sent any weather packets the latest 10 day(s).
| Time | Temp. | Humidity | Pressure | Rain* | Wind** | Luminosity | Snow |
|---|---|---|---|---|---|---|---|
| 1777334441 | 5° C | 48% | 1016.7 hPa | 0 mm | - | - | - |
| 1777332337 | 5° C | 48% | 1016.7 hPa | 0 mm | - | - | - |
| 1777331755 | 5° C | 48% | 1016.7 hPa | 0 mm | - | - | - |
| 1777330586 | 5° C | 48% | 1016.7 hPa | 0 mm | - | - | - |
| 1777326345 | 3.89° C | 44% | 1016.7 hPa | 0 mm | - | - | - |
| 1777318546 | 7.78° C | 36% | 1017.8 hPa | 0 mm | - | - | - |
| 1777313738 | 11.11° C | 33% | 1017.8 hPa | 0 mm | - | - | - |
| 1777308942 | 15° C | 30% | 1017.8 hPa | 0 mm | - | - | - |
| 1777302937 | 16.11° C | 29% | 1017.8 hPa | 0 mm | - | - | - |
| 1777302358 | 16.11° C | 28% | 1017.8 hPa | 0 mm | - | - | - |
| 1777301750 | 16.11° C | 28% | 1017.8 hPa | 0 mm | - | - | - |
| 1777296344 | 16.67° C | 31% | 1018.9 hPa | 0 mm | - | - | - |
| 1777294537 | 16.11° C | 32% | 1018.9 hPa | 0 mm | - | - | - |
| 1777293955 | 16.11° C | 33% | 1018.9 hPa | 0 mm | - | - | - |
| 1777292157 | 16.11° C | 34% | 1018.9 hPa | 0 mm | - | - | - |
| 1777288544 | 16.11° C | 36% | 1018.9 hPa | 0 mm | - | - | - |
| 1777287362 | 15.56° C | 36% | 1018.9 hPa | 0 mm | - | - | - |
| 1777286144 | 15° C | 37% | 1018.9 hPa | 0 mm | - | - | - |
| 1777285543 | 15° C | 36% | 1018.9 hPa | 0 mm | - | - | - |
| 1777284363 | 15° C | 36% | 1018.9 hPa | 0 mm | - | - | - |
| 1777283742 | 14.44° C | 36% | 1018.9 hPa | 0 mm | - | - | - |
| 1777282542 | 14.44° C | 36% | 1018.9 hPa | 0 mm | - | - | - |
| 1777281940 | 14.44° C | 36% | 1018.9 hPa | 0 mm | - | - | - |
| 1777275951 | 12.22° C | 44% | 1018.9 hPa | 0 mm | - | - | - |
* Rain latest 24 hours (hover to see other rain measurements)
** Current wind speed in m/s (hover to see current wind gust speed)